Maersk Constellation — WRYJ — position and weather

sailwx.info

Track history (hours):
 
Tides and Currents Weather Stations Pressure Air Temp Water Temp Dewpoint Dewpoint Depression Visibility Wind Speed Wind Dir Waves Ship Positions

Maersk Constellation

Owner: MAERSK LINES LIMITED, Norfolk, VA. More information available from US FCC via Universal Licensing System and Coast Guard Vessel Documentation Center.

Last reported at 2017-Feb-02 22:14 UTC. Time now 2017-Feb-20 18:38 UTC.
Position N 18°10' W 063°10'.
Warning: this ship's position is 17 days out of date.

Type: Cargo ship. MMSI: 367477000.

Date/timePositionNaut miles runAvg speedWind from/ knotsBaromVisibWave heightAir tempDewpointWater temp
2017-Feb-02 22:14N 18°10' W 063°10'6 9.0
2017-Feb-02 21:34N 18°04' W 063°11'9 9.3
2017-Feb-02 20:33N 17°55' W 063°12'  
2017-Jan-30 15:34N 16°48' W 062°17'6 0.3
2017-Jan-29 15:34N 16°51' W 062°11'7 7.4
2017-Jan-29 14:34N 16°54' W 062°04'8 7.8
2017-Jan-29 13:34N 16°56' W 061°56'8 7.6
2017-Jan-29 12:34N 16°58' W 061°49'3 3.2
2017-Jan-29 11:32N 17°01' W 061°46'0 0.0
2017-Jan-29 10:29N 17°01' W 061°46'0 0.0
2017-Jan-29 09:32N 17°01' W 061°46'0 0.0
2017-Jan-29 08:32N 17°01' W 061°46'0 0.0
2017-Jan-29 07:32N 17°01' W 061°46'0 0.0
2017-Jan-29 06:32N 17°01' W 061°46'0 0.0
2017-Jan-29 05:32N 17°01' W 061°46'0 0.0
2017-Jan-29 04:32N 17°01' W 061°46'0 0.0
2017-Jan-29 03:32N 17°01' W 061°46'0 0.0
2017-Jan-29 02:32N 17°01' W 061°46'0 0.0
2017-Jan-29 01:32N 17°01' W 061°46'0 0.0
2017-Jan-29 00:32N 17°01' W 061°46'0 0.0
2017-Jan-28 23:32N 17°01' W 061°46'0 0.0
2017-Jan-28 22:32N 17°01' W 061°46'0 0.0
2017-Jan-28 21:29N 17°01' W 061°46'0 0.0
2017-Jan-28 20:32N 17°01' W 061°46'0 0.0
2017-Jan-28 19:32N 17°01' W 061°46'0 0.0
2017-Jan-28 18:32N 17°01' W 061°46'0 0.0
2017-Jan-28 17:32N 17°01' W 061°46'0 0.0
2017-Jan-28 16:32N 17°01' W 061°46'0 0.0
2017-Jan-28 15:32N 17°01' W 061°46'0 0.0
2017-Jan-28 14:32N 17°01' W 061°46'0 0.0
2017-Jan-28 13:32N 17°01' W 061°46'0 0.0
2017-Jan-28 12:32N 17°01' W 061°46'0 0.0
2017-Jan-28 11:32N 17°01' W 061°46'0 0.0
2017-Jan-28 10:32N 17°01' W 061°46'0 0.0
2017-Jan-28 08:32N 17°01' W 061°46'0 0.0
2017-Jan-28 07:32N 17°01' W 061°46'0 0.0
2017-Jan-28 06:32N 17°01' W 061°46'0 0.0
2017-Jan-28 05:32N 17°01' W 061°46'0 0.0
2017-Jan-28 04:23N 17°01' W 061°46'0 0.0
2017-Jan-28 03:29N 17°01' W 061°46'0 0.0
2017-Jan-28 02:32N 17°01' W 061°46'0 0.0
2017-Jan-28 01:32N 17°01' W 061°46'0 0.0
2017-Jan-28 00:32N 17°01' W 061°46'0 0.0
2017-Jan-27 23:32N 17°01' W 061°46'0 0.0
2017-Jan-27 22:32N 17°01' W 061°46'0 0.0
2017-Jan-27 21:32N 17°01' W 061°46'0 0.0
2017-Jan-27 20:32N 17°01' W 061°46'0 0.0
2017-Jan-27 19:32N 17°01' W 061°46'0 0.0
2017-Jan-27 18:32N 17°01' W 061°46'0 0.0
2017-Jan-27 17:32N 17°01' W 061°46'0 0.0
2017-Jan-27 16:32N 17°01' W 061°46'0 0.0
2017-Jan-27 15:32N 17°01' W 061°46'0 0.0
2017-Jan-27 14:32N 17°01' W 061°46'0 0.0
2017-Jan-27 13:32N 17°01' W 061°46'0 0.0
2017-Jan-27 11:32N 17°01' W 061°46'0 0.0
2017-Jan-27 10:32N 17°01' W 061°46'0 0.0
2017-Jan-27 09:20N 17°01' W 061°46'0 0.0
2017-Jan-27 08:32N 17°01' W 061°46'0 0.0
2017-Jan-27 07:32N 17°01' W 061°46'0 0.0
2017-Jan-27 06:32N 17°01' W 061°46'0 0.0
2017-Jan-27 05:32N 17°01' W 061°46'0 0.0
2017-Jan-27 04:32N 17°01' W 061°46'0 0.0
2017-Jan-27 03:32N 17°01' W 061°46'0 0.0
2017-Jan-27 02:29N 17°01' W 061°46'0 0.0
2017-Jan-27 01:32N 17°01' W 061°46'0 0.0
2017-Jan-27 00:32N 17°01' W 061°46'0 0.0
2017-Jan-26 23:32N 17°01' W 061°46'0 0.0
2017-Jan-26 22:32N 17°01' W 061°46'0 0.0
2017-Jan-26 21:32N 17°01' W 061°46'0 0.0
2017-Jan-26 20:32N 17°01' W 061°46'0 0.0
2017-Jan-26 19:32N 17°01' W 061°46'0 0.0
2017-Jan-26 18:32N 17°01' W 061°46'0 0.0
2017-Jan-26 17:32N 17°01' W 061°46'0 0.0
2017-Jan-26 16:32N 17°01' W 061°46'0 0.0
2017-Jan-26 15:32N 17°01' W 061°46'0 0.0
2017-Jan-26 14:31N 17°01' W 061°46'0 0.0
2017-Jan-26 13:32N 17°01' W 061°46'0 0.0
2017-Jan-26 12:32N 17°01' W 061°46'0 0.0
2017-Jan-26 11:32N 17°01' W 061°46'0 0.0
2017-Jan-26 10:32N 17°01' W 061°46'0 0.0
2017-Jan-26 09:32N 17°01' W 061°46'0 0.0
2017-Jan-26 08:32N 17°01' W 061°46'0 0.0
2017-Jan-26 07:32N 17°01' W 061°46'0 0.0
2017-Jan-26 06:32N 17°01' W 061°46'0 0.0
2017-Jan-26 05:32N 17°01' W 061°46'0 0.0
2017-Jan-26 04:32N 17°01' W 061°46'0 0.0
2017-Jan-26 03:32N 17°01' W 061°46'0 0.0
2017-Jan-26 02:32N 17°01' W 061°46'0 0.0
2017-Jan-26 01:32N 17°01' W 061°46'0 0.0
2017-Jan-26 00:32N 17°01' W 061°46'0 0.0
2017-Jan-25 23:32N 17°01' W 061°46'0 0.0
2017-Jan-25 22:32N 17°01' W 061°46'0 0.0
2017-Jan-25 21:32N 17°01' W 061°46'0 0.0
2017-Jan-25 20:32N 17°01' W 061°46'0 0.0
2017-Jan-25 19:32N 17°01' W 061°46'0 0.0
2017-Jan-25 18:32N 17°01' W 061°46'0 0.0
2017-Jan-25 17:32N 17°01' W 061°46'0 0.0
2017-Jan-25 16:32N 17°01' W 061°46'0 0.0
2017-Jan-25 15:32N 17°01' W 061°46'0 0.0
2017-Jan-25 14:32N 17°01' W 061°46'0 0.0
2017-Jan-25 13:32N 17°01' W 061°46'0 0.0
2017-Jan-25 12:32N 17°01' W 061°46'0 0.0
2017-Jan-25 11:32N 17°01' W 061°46'0 0.0
2017-Jan-25 10:32N 17°01' W 061°46'0 0.0
2017-Jan-25 09:32N 17°01' W 061°46'0 0.0
2017-Jan-25 08:32N 17°01' W 061°46'0 0.0
2017-Jan-25 07:32N 17°01' W 061°46'0 0.0
2017-Jan-25 06:32N 17°01' W 061°46'0 0.0
2017-Jan-25 05:32N 17°01' W 061°46'0 0.0
2017-Jan-25 04:32N 17°01' W 061°46'0 0.0
2017-Jan-25 03:32N 17°01' W 061°46'0 0.0
2017-Jan-25 02:32N 17°01' W 061°46'0 0.0
2017-Jan-25 01:32N 17°01' W 061°46'0 0.0
2017-Jan-25 00:32N 17°01' W 061°46'0 0.0
2017-Jan-24 23:32N 17°01' W 061°46'0 0.0
2017-Jan-24 22:32N 17°01' W 061°46'0 0.0
2017-Jan-24 21:32N 17°01' W 061°46'0 0.0
2017-Jan-24 20:32N 17°01' W 061°46'0 0.0
2017-Jan-24 19:32N 17°01' W 061°46'0 0.0
2017-Jan-24 18:32N 17°01' W 061°46'0 0.0
2017-Jan-24 17:32N 17°01' W 061°46'0 0.0
2017-Jan-24 16:32N 17°01' W 061°46'0 0.0
2017-Jan-24 15:32N 17°01' W 061°46'0 0.0
2017-Jan-24 14:32N 17°01' W 061°46'0 0.0
2017-Jan-24 13:32N 17°01' W 061°46'0 0.0
2017-Jan-24 12:32N 17°01' W 061°46'0 0.0
2017-Jan-24 11:32N 17°01' W 061°46'0 0.0
2017-Jan-24 10:32N 17°01' W 061°46'0 0.0
2017-Jan-24 09:32N 17°01' W 061°46'0 0.0
2017-Jan-24 08:29N 17°01' W 061°46'0 0.0
2017-Jan-24 07:32N 17°01' W 061°46'0 0.0
2017-Jan-24 06:29N 17°01' W 061°46'0 0.0
2017-Jan-24 05:32N 17°01' W 061°46'0 0.0
2017-Jan-24 04:32N 17°01' W 061°46'0 0.0
2017-Jan-24 03:32N 17°01' W 061°46'0 0.0
2017-Jan-24 02:32N 17°01' W 061°46'0 0.0
2017-Jan-24 01:32N 17°01' W 061°46'0 0.0
2017-Jan-24 00:29N 17°01' W 061°46'0 0.0
2017-Jan-23 23:32N 17°01' W 061°46'0 0.0
2017-Jan-23 22:32N 17°01' W 061°46'  
Track history (hours):
 
Tides and Currents Weather Stations Pressure Air Temp Water Temp Dewpoint Dewpoint Depression Visibility Wind Speed Wind Dir Waves Ship Positions

Maersk Constellation

Owner: MAERSK LINES LIMITED, Norfolk, VA. More information available from US FCC via Universal Licensing System and Coast Guard Vessel Documentation Center.

Last reported at 2017-Feb-02 22:14 UTC. Time now 2017-Feb-20 18:38 UTC.
Position N 18°10' W 063°10'.
Warning: this ship's position is 17 days out of date.

Type: Cargo ship. MMSI: 367477000.

Date/timePositionNaut miles runAvg speedWind from/ knotsBaromVisibWave heightAir tempDewpointWater temp
2017-Feb-02 22:14N 18°10' W 063°10'6 9.0
2017-Feb-02 21:34N 18°04' W 063°11'9 9.3
2017-Feb-02 20:33N 17°55' W 063°12'  
2017-Jan-30 15:34N 16°48' W 062°17'6 0.3
2017-Jan-29 15:34N 16°51' W 062°11'7 7.4
2017-Jan-29 14:34N 16°54' W 062°04'8 7.8
2017-Jan-29 13:34N 16°56' W 061°56'8 7.6
2017-Jan-29 12:34N 16°58' W 061°49'3 3.2
2017-Jan-29 11:32N 17°01' W 061°46'0 0.0
2017-Jan-29 10:29N 17°01' W 061°46'0 0.0
2017-Jan-29 09:32N 17°01' W 061°46'0 0.0
2017-Jan-29 08:32N 17°01' W 061°46'0 0.0
2017-Jan-29 07:32N 17°01' W 061°46'0 0.0
2017-Jan-29 06:32N 17°01' W 061°46'0 0.0
2017-Jan-29 05:32N 17°01' W 061°46'0 0.0
2017-Jan-29 04:32N 17°01' W 061°46'0 0.0
2017-Jan-29 03:32N 17°01' W 061°46'0 0.0
2017-Jan-29 02:32N 17°01' W 061°46'0 0.0
2017-Jan-29 01:32N 17°01' W 061°46'0 0.0
2017-Jan-29 00:32N 17°01' W 061°46'0 0.0
2017-Jan-28 23:32N 17°01' W 061°46'0 0.0
2017-Jan-28 22:32N 17°01' W 061°46'0 0.0
2017-Jan-28 21:29N 17°01' W 061°46'0 0.0
2017-Jan-28 20:32N 17°01' W 061°46'0 0.0
2017-Jan-28 19:32N 17°01' W 061°46'0 0.0
2017-Jan-28 18:32N 17°01' W 061°46'0 0.0
2017-Jan-28 17:32N 17°01' W 061°46'0 0.0
2017-Jan-28 16:32N 17°01' W 061°46'0 0.0
2017-Jan-28 15:32N 17°01' W 061°46'0 0.0
2017-Jan-28 14:32N 17°01' W 061°46'0 0.0
2017-Jan-28 13:32N 17°01' W 061°46'0 0.0
2017-Jan-28 12:32N 17°01' W 061°46'0 0.0
2017-Jan-28 11:32N 17°01' W 061°46'0 0.0
2017-Jan-28 10:32N 17°01' W 061°46'0 0.0
2017-Jan-28 08:32N 17°01' W 061°46'0 0.0
2017-Jan-28 07:32N 17°01' W 061°46'0 0.0
2017-Jan-28 06:32N 17°01' W 061°46'0 0.0
2017-Jan-28 05:32N 17°01' W 061°46'0 0.0
2017-Jan-28 04:23N 17°01' W 061°46'0 0.0
2017-Jan-28 03:29N 17°01' W 061°46'0 0.0
2017-Jan-28 02:32N 17°01' W 061°46'0 0.0
2017-Jan-28 01:32N 17°01' W 061°46'0 0.0
2017-Jan-28 00:32N 17°01' W 061°46'0 0.0
2017-Jan-27 23:32N 17°01' W 061°46'0 0.0
2017-Jan-27 22:32N 17°01' W 061°46'0 0.0
2017-Jan-27 21:32N 17°01' W 061°46'0 0.0
2017-Jan-27 20:32N 17°01' W 061°46'0 0.0
2017-Jan-27 19:32N 17°01' W 061°46'0 0.0
2017-Jan-27 18:32N 17°01' W 061°46'0 0.0
2017-Jan-27 17:32N 17°01' W 061°46'0 0.0
2017-Jan-27 16:32N 17°01' W 061°46'0 0.0
2017-Jan-27 15:32N 17°01' W 061°46'0 0.0
2017-Jan-27 14:32N 17°01' W 061°46'0 0.0
2017-Jan-27 13:32N 17°01' W 061°46'0 0.0
2017-Jan-27 11:32N 17°01' W 061°46'0 0.0
2017-Jan-27 10:32N 17°01' W 061°46'0 0.0
2017-Jan-27 09:20N 17°01' W 061°46'0 0.0
2017-Jan-27 08:32N 17°01' W 061°46'0 0.0
2017-Jan-27 07:32N 17°01' W 061°46'0 0.0
2017-Jan-27 06:32N 17°01' W 061°46'0 0.0
2017-Jan-27 05:32N 17°01' W 061°46'0 0.0
2017-Jan-27 04:32N 17°01' W 061°46'0 0.0
2017-Jan-27 03:32N 17°01' W 061°46'0 0.0
2017-Jan-27 02:29N 17°01' W 061°46'0 0.0
2017-Jan-27 01:32N 17°01' W 061°46'0 0.0
2017-Jan-27 00:32N 17°01' W 061°46'0 0.0
2017-Jan-26 23:32N 17°01' W 061°46'0 0.0
2017-Jan-26 22:32N 17°01' W 061°46'0 0.0
2017-Jan-26 21:32N 17°01' W 061°46'0 0.0
2017-Jan-26 20:32N 17°01' W 061°46'0 0.0
2017-Jan-26 19:32N 17°01' W 061°46'0 0.0
2017-Jan-26 18:32N 17°01' W 061°46'0 0.0
2017-Jan-26 17:32N 17°01' W 061°46'0 0.0
2017-Jan-26 16:32N 17°01' W 061°46'0 0.0
2017-Jan-26 15:32N 17°01' W 061°46'0 0.0
2017-Jan-26 14:31N 17°01' W 061°46'0 0.0
2017-Jan-26 13:32N 17°01' W 061°46'0 0.0
2017-Jan-26 12:32N 17°01' W 061°46'0 0.0
2017-Jan-26 11:32N 17°01' W 061°46'0 0.0
2017-Jan-26 10:32N 17°01' W 061°46'0 0.0
2017-Jan-26 09:32N 17°01' W 061°46'0 0.0
2017-Jan-26 08:32N 17°01' W 061°46'0 0.0
2017-Jan-26 07:32N 17°01' W 061°46'0 0.0
2017-Jan-26 06:32N 17°01' W 061°46'0 0.0
2017-Jan-26 05:32N 17°01' W 061°46'0 0.0
2017-Jan-26 04:32N 17°01' W 061°46'0 0.0
2017-Jan-26 03:32N 17°01' W 061°46'0 0.0
2017-Jan-26 02:32N 17°01' W 061°46'0 0.0
2017-Jan-26 01:32N 17°01' W 061°46'0 0.0
2017-Jan-26 00:32N 17°01' W 061°46'0 0.0
2017-Jan-25 23:32N 17°01' W 061°46'0 0.0
2017-Jan-25 22:32N 17°01' W 061°46'0 0.0
2017-Jan-25 21:32N 17°01' W 061°46'0 0.0
2017-Jan-25 20:32N 17°01' W 061°46'0 0.0
2017-Jan-25 19:32N 17°01' W 061°46'0 0.0
2017-Jan-25 18:32N 17°01' W 061°46'0 0.0
2017-Jan-25 17:32N 17°01' W 061°46'0 0.0
2017-Jan-25 16:32N 17°01' W 061°46'0 0.0
2017-Jan-25 15:32N 17°01' W 061°46'0 0.0
2017-Jan-25 14:32N 17°01' W 061°46'0 0.0
2017-Jan-25 13:32N 17°01' W 061°46'0 0.0
2017-Jan-25 12:32N 17°01' W 061°46'0 0.0
2017-Jan-25 11:32N 17°01' W 061°46'0 0.0
2017-Jan-25 10:32N 17°01' W 061°46'0 0.0
2017-Jan-25 09:32N 17°01' W 061°46'0 0.0
2017-Jan-25 08:32N 17°01' W 061°46'0 0.0
2017-Jan-25 07:32N 17°01' W 061°46'0 0.0
2017-Jan-25 06:32N 17°01' W 061°46'0 0.0
2017-Jan-25 05:32N 17°01' W 061°46'0 0.0
2017-Jan-25 04:32N 17°01' W 061°46'0 0.0
2017-Jan-25 03:32N 17°01' W 061°46'0 0.0
2017-Jan-25 02:32N 17°01' W 061°46'0 0.0
2017-Jan-25 01:32N 17°01' W 061°46'0 0.0
2017-Jan-25 00:32N 17°01' W 061°46'0 0.0
2017-Jan-24 23:32N 17°01' W 061°46'0 0.0
2017-Jan-24 22:32N 17°01' W 061°46'0 0.0
2017-Jan-24 21:32N 17°01' W 061°46'0 0.0
2017-Jan-24 20:32N 17°01' W 061°46'0 0.0
2017-Jan-24 19:32N 17°01' W 061°46'0 0.0
2017-Jan-24 18:32N 17°01' W 061°46'0 0.0
2017-Jan-24 17:32N 17°01' W 061°46'0 0.0
2017-Jan-24 16:32N 17°01' W 061°46'0 0.0
2017-Jan-24 15:32N 17°01' W 061°46'0 0.0
2017-Jan-24 14:32N 17°01' W 061°46'0 0.0
2017-Jan-24 13:32N 17°01' W 061°46'0 0.0
2017-Jan-24 12:32N 17°01' W 061°46'0 0.0
2017-Jan-24 11:32N 17°01' W 061°46'0 0.0
2017-Jan-24 10:32N 17°01' W 061°46'0 0.0
2017-Jan-24 09:32N 17°01' W 061°46'0 0.0
2017-Jan-24 08:29N 17°01' W 061°46'0 0.0
2017-Jan-24 07:32N 17°01' W 061°46'0 0.0
2017-Jan-24 06:29N 17°01' W 061°46'0 0.0
2017-Jan-24 05:32N 17°01' W 061°46'0 0.0
2017-Jan-24 04:32N 17°01' W 061°46'0 0.0
2017-Jan-24 03:32N 17°01' W 061°46'0 0.0
2017-Jan-24 02:32N 17°01' W 061°46'0 0.0
2017-Jan-24 01:32N 17°01' W 061°46'0 0.0
2017-Jan-24 00:29N 17°01' W 061°46'0 0.0
2017-Jan-23 23:32N 17°01' W 061°46'0 0.0
2017-Jan-23 22:32N 17°01' W 061°46'  

Dump ship's entire track history